Time;durP1;ratioP1;P1;durP2;ratioP2;P2;SDS_P1;SDS_P2;PMS_P1;PMS_P2;Temp;Humidity;BMP_temperature;BMP_pressure;BME280_temperature;BME280_humidity;BME280_pressure;Samples;Min_cycle;Max_cycle;Signal;HPM_P1;HPM_P2
2021/04/16 00:01:59;;;;;;;12.35;8.80;;;;;;;;;;5137332;27;20393;-63
2021/04/16 00:04:24;;;;;;;11.68;9.38;;;;;;;;;;5137591;27;20030;-63
2021/04/16 00:06:50;;;;;;;9.20;8.20;;;;;;;;;;5156058;27;20011;-62
2021/04/16 00:09:16;;;;;;;12.23;8.95;;;;;;;;;;5155888;27;20033;-62
2021/04/16 00:11:41;;;;;;;10.00;8.95;;;;;;;;;;5137311;27;20049;-62
2021/04/16 00:14:07;;;;;;;9.20;8.07;;;;;;;;;;5155864;27;20027;-59
2021/04/16 00:16:33;;;;;;;9.90;7.97;;;;;;;;;;5155832;27;20029;-61
2021/04/16 00:18:58;;;;;;;9.80;8.25;;;;;;;;;;5155951;27;20022;-62
2021/04/16 00:21:25;;;;;;;10.25;8.07;;;;;;;;;;5155894;27;20015;-63
2021/04/16 00:23:50;;;;;;;11.20;8.98;;;;;;;;;;5155822;27;20205;-63
2021/04/16 00:26:16;;;;;;;9.93;8.52;;;;;;;;;;5155774;27;20019;-62
2021/04/16 00:28:42;;;;;;;9.00;8.07;;;;;;;;;;5155530;27;20524;-62
2021/04/16 00:31:15;;;;;;;11.10;8.80;;;;;;;;;;5155624;27;20158;-62
2021/04/16 00:33:41;;;;;;;11.50;9.07;;;;;;;;;;5155722;27;20106;-62
2021/04/16 00:36:07;;;;;;;7.68;6.40;;;;;;;;;;5137247;27;20095;-62
2021/04/16 00:38:32;;;;;;;10.02;7.90;;;;;;;;;;5155761;27;20034;-63
2021/04/16 00:40:59;;;;;;;9.25;7.75;;;;;;;;;;5155080;27;20023;-62
2021/04/16 00:43:27;;;;;;;8.95;6.90;;;;;;;;;;5155388;27;20493;-62
2021/04/16 00:45:54;;;;;;;10.00;8.15;;;;;;;;;;5155389;27;20022;-62
2021/04/16 00:48:25;;;;;;;10.00;7.35;;;;;;;;;;5155057;27;20054;-62
2021/04/16 00:50:52;;;;;;;8.40;7.10;;;;;;;;;;5155285;27;20027;-62
2021/04/16 00:53:19;;;;;;;10.45;7.38;;;;;;;;;;5136735;27;20022;-62
2021/04/16 00:55:44;;;;;;;7.90;6.55;;;;;;;;;;5154571;27;20025;-63
2021/04/16 00:58:10;;;;;;;8.88;7.60;;;;;;;;;;5155249;27;20018;-63
2021/04/16 01:00:37;;;;;;;7.72;6.55;;;;;;;;;;5154965;27;20579;-62
2021/04/16 01:03:05;;;;;;;10.48;8.52;;;;;;;;;;5155418;27;20090;-70
2021/04/16 01:05:30;;;;;;;9.30;7.35;;;;;;;;;;5155162;27;20023;-70
2021/04/16 01:07:56;;;;;;;9.32;7.40;;;;;;;;;;5155051;27;20068;-70
2021/04/16 01:10:21;;;;;;;8.68;7.38;;;;;;;;;;5155139;27;20054;-70
2021/04/16 01:12:48;;;;;;;7.72;6.93;;;;;;;;;;5155168;27;20038;-70
2021/04/16 01:15:28;;;;;;;10.43;8.20;;;;;;;;;;5155085;27;20082;-62
2021/04/16 01:17:54;;;;;;;9.70;8.07;;;;;;;;;;5155100;27;20034;-62
2021/04/16 01:20:25;;;;;;;9.77;7.20;;;;;;;;;;5154951;27;20383;-63
2021/04/16 01:22:57;;;;;;;9.93;8.02;;;;;;;;;;5155151;27;20026;-61
2021/04/16 01:25:23;;;;;;;9.70;7.65;;;;;;;;;;5155125;27;20378;-62
2021/04/16 01:27:48;;;;;;;7.50;6.72;;;;;;;;;;5154849;27;20023;-62
2021/04/16 01:30:17;;;;;;;8.32;7.45;;;;;;;;;;5155065;27;20034;-63
2021/04/16 01:32:43;;;;;;;6.80;6.15;;;;;;;;;;5155038;27;20023;-63
2021/04/16 01:35:15;;;;;;;6.75;6.07;;;;;;;;;;5154679;27;20030;-62
2021/04/16 01:37:41;;;;;;;8.45;6.97;;;;;;;;;;5155052;27;20446;-62
2021/04/16 01:40:07;;;;;;;7.55;6.35;;;;;;;;;;5136304;27;20029;-62
2021/04/16 01:42:33;;;;;;;7.95;6.55;;;;;;;;;;5154884;27;20457;-60
2021/04/16 01:44:58;;;;;;;7.28;6.45;;;;;;;;;;5154609;27;20019;-63
2021/04/16 01:47:24;;;;;;;7.75;6.90;;;;;;;;;;5154699;27;20023;-62
2021/04/16 01:49:50;;;;;;;7.35;5.82;;;;;;;;;;5154836;27;20067;-62
2021/04/16 01:52:19;;;;;;;6.65;5.90;;;;;;;;;;5135917;27;20114;-63
2021/04/16 01:54:47;;;;;;;8.10;6.32;;;;;;;;;;5154599;27;20119;-62
2021/04/16 01:57:20;;;;;;;7.35;5.68;;;;;;;;;;5154762;27;20038;-62
2021/04/16 01:59:47;;;;;;;6.22;5.28;;;;;;;;;;5153998;27;20053;-62
2021/04/16 02:02:14;;;;;;;5.95;5.35;;;;;;;;;;5154812;27;20450;-62
2021/04/16 02:04:40;;;;;;;6.22;5.63;;;;;;;;;;5154652;27;20027;-62
2021/04/16 02:07:06;;;;;;;6.30;5.15;;;;;;;;;;5156198;27;20059;-62
2021/04/16 02:09:34;;;;;;;5.85;5.32;;;;;;;;;;5139966;27;20393;-62
2021/04/16 02:11:59;;;;;;;7.88;5.80;;;;;;;;;;5158456;27;20432;-62
2021/04/16 02:14:26;;;;;;;5.25;3.88;;;;;;;;;;5158368;27;20030;-62
2021/04/16 02:16:59;;;;;;;4.63;4.10;;;;;;;;;;5158292;27;20012;-62
2021/04/16 02:19:24;;;;;;;4.28;3.90;;;;;;;;;;5158257;27;20030;-62
2021/04/16 02:21:50;;;;;;;5.82;5.07;;;;;;;;;;5139373;27;20071;-62
2021/04/16 02:24:15;;;;;;;5.15;3.88;;;;;;;;;;5158148;27;20057;-63
2021/04/16 02:26:41;;;;;;;4.75;4.28;;;;;;;;;;5158214;27;20446;-62
2021/04/16 02:29:07;;;;;;;4.88;4.47;;;;;;;;;;5157796;27;20397;-63
2021/04/16 02:31:33;;;;;;;5.18;4.70;;;;;;;;;;5157674;27;20018;-62
2021/04/16 02:33:59;;;;;;;5.35;4.85;;;;;;;;;;5139027;27;20033;-62
2021/04/16 02:36:25;;;;;;;4.90;4.45;;;;;;;;;;5157837;27;20017;-62
2021/04/16 02:38:51;;;;;;;4.25;3.85;;;;;;;;;;5157584;27;20506;-62
2021/04/16 02:41:17;;;;;;;6.57;4.22;;;;;;;;;;5157675;27;20144;-63
2021/04/16 02:43:42;;;;;;;5.22;4.30;;;;;;;;;;5138963;27;20104;-63
2021/04/16 02:46:08;;;;;;;5.07;4.43;;;;;;;;;;5139062;27;20065;-63
2021/04/16 02:48:33;;;;;;;5.10;4.60;;;;;;;;;;5157575;27;20052;-69
2021/04/16 02:51:00;;;;;;;4.95;4.55;;;;;;;;;;5157660;27;20025;-71
2021/04/16 02:53:25;;;;;;;3.28;3.08;;;;;;;;;;5139057;27;20022;-71
2021/04/16 02:55:51;;;;;;;5.15;3.97;;;;;;;;;;5157257;27;20480;-69
2021/04/16 02:58:16;;;;;;;4.13;3.78;;;;;;;;;;5157445;27;20133;-72
2021/04/16 03:00:42;;;;;;;4.18;3.78;;;;;;;;;;5157214;27;20057;-71
2021/04/16 03:03:07;;;;;;;2.90;2.55;;;;;;;;;;5157367;27;20038;-70
2021/04/16 03:05:33;;;;;;;3.60;3.30;;;;;;;;;;5157244;27;20027;-70
2021/04/16 03:07:58;;;;;;;3.88;3.15;;;;;;;;;;5157235;27;20485;-70
2021/04/16 03:10:27;;;;;;;3.20;2.88;;;;;;;;;;5138461;27;20046;-70
2021/04/16 03:12:53;;;;;;;3.35;3.05;;;;;;;;;;5157232;27;20018;-70
2021/04/16 03:15:20;;;;;;;3.38;3.17;;;;;;;;;;5157451;27;20404;-70
2021/04/16 03:17:46;;;;;;;3.70;3.40;;;;;;;;;;5156576;27;20045;-70
2021/04/16 03:20:12;;;;;;;2.78;2.58;;;;;;;;;;5156979;27;20450;-70
2021/04/16 03:22:38;;;;;;;2.95;2.75;;;;;;;;;;5156723;27;20473;-70
2021/04/16 03:25:07;;;;;;;3.13;2.90;;;;;;;;;;5156645;27;20472;-69
2021/04/16 03:27:33;;;;;;;3.53;3.03;;;;;;;;;;5156938;27;20026;-69
2021/04/16 03:29:58;;;;;;;3.17;2.92;;;;;;;;;;5156894;27;20346;-69
2021/04/16 03:32:25;;;;;;;2.45;2.25;;;;;;;;;;5157028;27;20109;-70
2021/04/16 03:34:50;;;;;;;3.38;3.08;;;;;;;;;;5156945;27;20022;-70
2021/04/16 03:37:16;;;;;;;2.70;2.50;;;;;;;;;;5156714;27;20027;-70
2021/04/16 03:39:41;;;;;;;3.85;3.47;;;;;;;;;;5156489;27;20086;-71
2021/04/16 03:42:07;;;;;;;3.38;3.08;;;;;;;;;;5156532;27;20517;-70
2021/04/16 03:44:32;;;;;;;3.60;3.30;;;;;;;;;;5156299;27;20021;-62
2021/04/16 03:46:58;;;;;;;3.17;2.63;;;;;;;;;;5137773;27;20114;-63
2021/04/16 03:49:25;;;;;;;3.72;3.42;;;;;;;;;;5137575;27;20373;-62
2021/04/16 03:51:56;;;;;;;3.22;2.92;;;;;;;;;;5156377;27;20061;-63
2021/04/16 03:54:22;;;;;;;3.78;3.47;;;;;;;;;;5137493;27;20023;-62
2021/04/16 03:56:47;;;;;;;2.90;2.70;;;;;;;;;;5156260;27;20083;-62
2021/04/16 03:59:13;;;;;;;3.83;3.53;;;;;;;;;;5155378;27;20050;-63
2021/04/16 04:01:39;;;;;;;3.47;3.17;;;;;;;;;;5156594;27;20057;-63
2021/04/16 04:04:05;;;;;;;3.50;3.20;;;;;;;;;;5156030;27;20027;-69
2021/04/16 04:06:31;;;;;;;3.35;3.05;;;;;;;;;;5155950;27;20023;-70
2021/04/16 04:08:56;;;;;;;3.50;3.30;;;;;;;;;;5155729;27;20125;-67
2021/04/16 04:11:23;;;;;;;3.28;3.05;;;;;;;;;;5137438;27;20018;-70
2021/04/16 04:13:48;;;;;;;3.28;3.08;;;;;;;;;;5155730;27;20023;-70
2021/04/16 04:16:13;;;;;;;4.00;3.30;;;;;;;;;;5137186;27;20537;-70
2021/04/16 04:18:39;;;;;;;3.60;3.30;;;;;;;;;;5155833;27;20524;-68
2021/04/16 04:21:05;;;;;;;3.17;2.92;;;;;;;;;;5155390;27;20023;-68
2021/04/16 04:23:30;;;;;;;2.53;2.33;;;;;;;;;;5155936;27;20491;-68
2021/04/16 04:25:56;;;;;;;3.78;3.47;;;;;;;;;;5120261;27;20022;-68
2021/04/16 04:28:22;;;;;;;3.78;3.50;;;;;;;;;;5152178;27;20027;-69
2021/04/16 04:30:47;;;;;;;3.53;3.22;;;;;;;;;;5148042;27;20022;-69
2021/04/16 04:33:13;;;;;;;3.67;3.38;;;;;;;;;;5128006;27;20091;-69
2021/04/16 04:35:38;;;;;;;3.85;3.55;;;;;;;;;;5146042;27;20503;-69
2021/04/16 04:38:04;;;;;;;3.70;3.40;;;;;;;;;;5151425;27;20447;-69
2021/04/16 04:40:30;;;;;;;3.65;3.35;;;;;;;;;;5136388;27;20345;-68
2021/04/16 04:42:56;;;;;;;4.28;3.92;;;;;;;;;;5155389;27;20035;-69
2021/04/16 04:45:22;;;;;;;3.65;3.45;;;;;;;;;;5155672;27;20014;-70
2021/04/16 04:47:49;;;;;;;4.00;3.63;;;;;;;;;;5136711;27;20034;-69
2021/04/16 04:50:16;;;;;;;3.65;3.35;;;;;;;;;;5137082;27;20014;-70
2021/04/16 04:52:42;;;;;;;3.63;3.33;;;;;;;;;;5155384;27;20023;-70
2021/04/16 04:55:10;;;;;;;3.90;3.55;;;;;;;;;;5136706;27;20026;-70
2021/04/16 04:57:35;;;;;;;3.80;3.50;;;;;;;;;;5155242;27;20071;-69
2021/04/16 05:00:02;;;;;;;3.90;3.60;;;;;;;;;;5154568;27;20062;-69
2021/04/16 05:02:28;;;;;;;4.30;4.00;;;;;;;;;;5155380;27;20041;-69
2021/04/16 05:04:53;;;;;;;4.18;3.88;;;;;;;;;;5155124;27;20011;-69
2021/04/16 05:07:19;;;;;;;4.28;3.90;;;;;;;;;;5155124;27;20037;-68
2021/04/16 05:09:44;;;;;;;4.40;4.00;;;;;;;;;;5136722;27;20061;-69
2021/04/16 05:12:11;;;;;;;4.25;3.88;;;;;;;;;;5155503;27;20023;-69
2021/04/16 05:14:36;;;;;;;3.78;3.47;;;;;;;;;;5155390;27;20018;-68
2021/04/16 05:17:02;;;;;;;4.40;4.10;;;;;;;;;;5155419;27;20023;-68
2021/04/16 05:19:27;;;;;;;3.97;3.67;;;;;;;;;;5136630;27;20075;-68
2021/04/16 05:21:56;;;;;;;5.00;4.10;;;;;;;;;;5155076;27;20035;-68
2021/04/16 05:24:21;;;;;;;4.93;4.43;;;;;;;;;;5136423;27;20019;-68
2021/04/16 05:26:47;;;;;;;5.00;4.53;;;;;;;;;;5154996;27;20515;-68
2021/04/16 05:29:15;;;;;;;4.25;3.85;;;;;;;;;;5154873;27;20018;-68
2021/04/16 05:31:41;;;;;;;5.78;5.15;;;;;;;;;;5154124;27;20039;-68
2021/04/16 05:34:06;;;;;;;6.25;5.32;;;;;;;;;;5155054;27;20014;-68
2021/04/16 05:36:32;;;;;;;6.40;5.80;;;;;;;;;;5155097;27;20099;-68
2021/04/16 05:38:58;;;;;;;7.50;6.75;;;;;;;;;;5155202;27;20481;-70
2021/04/16 05:41:24;;;;;;;6.50;5.90;;;;;;;;;;5157012;27;20489;-70
2021/04/16 05:43:50;;;;;;;6.00;5.43;;;;;;;;;;5140418;27;20128;-70
2021/04/16 05:46:15;;;;;;;5.85;5.25;;;;;;;;;;5158647;27;20113;-69
2021/04/16 05:48:41;;;;;;;5.80;5.30;;;;;;;;;;5140030;27;20011;-69
2021/04/16 05:51:07;;;;;;;4.40;4.00;;;;;;;;;;5158812;27;20465;-68
2021/04/16 05:53:33;;;;;;;5.13;4.63;;;;;;;;;;5140275;27;20071;-68
2021/04/16 05:55:58;;;;;;;6.07;5.47;;;;;;;;;;5140041;27;20488;-69
2021/04/16 05:58:24;;;;;;;5.82;5.32;;;;;;;;;;5158653;27;20044;-69
2021/04/16 06:00:49;;;;;;;5.57;5.07;;;;;;;;;;5158749;27;20050;-69
2021/04/16 06:03:16;;;;;;;7.93;5.47;;;;;;;;;;5158557;27;20026;-69
2021/04/16 06:05:42;;;;;;;6.38;4.88;;;;;;;;;;5158308;27;20034;-68
2021/04/16 06:08:07;;;;;;;4.90;4.45;;;;;;;;;;5157970;27;20078;-69
2021/04/16 06:10:33;;;;;;;6.07;4.70;;;;;;;;;;5157913;27;20133;-67
2021/04/16 06:12:58;;;;;;;7.15;5.95;;;;;;;;;;5139791;27;20518;-67
2021/04/16 06:15:25;;;;;;;5.00;4.60;;;;;;;;;;5139529;27;20037;-69
2021/04/16 06:17:53;;;;;;;6.35;5.75;;;;;;;;;;5158459;27;20042;-69
2021/04/16 06:20:20;;;;;;;6.22;5.57;;;;;;;;;;5158305;27;20113;-68
2021/04/16 06:22:47;;;;;;;6.93;6.22;;;;;;;;;;5158308;27;20381;-69
2021/04/16 06:25:15;;;;;;;5.95;5.35;;;;;;;;;;5158072;27;20027;-69
2021/04/16 06:27:40;;;;;;;6.65;5.97;;;;;;;;;;5158139;27;20015;-69
2021/04/16 06:30:07;;;;;;;5.93;5.20;;;;;;;;;;5157854;27;20030;-68
2021/04/16 06:32:32;;;;;;;7.03;5.97;;;;;;;;;;5158305;27;20135;-69
2021/04/16 06:34:59;;;;;;;5.70;5.10;;;;;;;;;;5157914;27;20051;-68
2021/04/16 06:37:24;;;;;;;3.97;3.63;;;;;;;;;;5158041;27;20007;-70
2021/04/16 06:39:50;;;;;;;5.35;4.82;;;;;;;;;;5139351;27;20091;-70
2021/04/16 06:42:26;;;;;;;9.18;7.75;;;;;;;;;;5157474;27;20373;-70
2021/04/16 06:44:53;;;;;;;6.47;4.70;;;;;;;;;;5157573;27;20030;-70
2021/04/16 06:47:29;;;;;;;11.82;7.00;;;;;;;;;;5157329;27;20042;-71
2021/04/16 06:49:58;;;;;;;5.45;4.85;;;;;;;;;;5139442;27;20098;-70
2021/04/16 06:52:27;;;;;;;6.05;5.47;;;;;;;;;;5156795;27;20022;-70
2021/04/16 06:54:56;;;;;;;4.75;4.00;;;;;;;;;;5157306;27;20026;-70
2021/04/16 06:57:31;;;;;;;5.22;4.72;;;;;;;;;;5157317;27;20015;-71
2021/04/16 07:00:00;;;;;;;7.40;6.00;;;;;;;;;;5154748;27;20054;-70
2021/04/16 07:02:34;;;;;;;6.43;5.70;;;;;;;;;;5156811;27;20067;-70
2021/04/16 07:05:00;;;;;;;4.53;4.00;;;;;;;;;;5154226;27;20098;-70
2021/04/16 07:07:33;;;;;;;5.63;4.95;;;;;;;;;;5156104;27;20159;-71
2021/04/16 07:10:04;;;;;;;6.65;4.75;;;;;;;;;;5156568;27;20510;-71
2021/04/16 07:12:31;;;;;;;5.05;4.57;;;;;;;;;;5156442;27;20067;-69
2021/04/16 07:14:57;;;;;;;5.75;5.15;;;;;;;;;;5154217;27;20026;-69
2021/04/16 07:17:26;;;;;;;4.60;4.20;;;;;;;;;;5137513;27;20027;-69
2021/04/16 07:19:51;;;;;;;5.53;5.05;;;;;;;;;;5156554;27;20019;-69
2021/04/16 07:22:43;;;;;;;7.47;5.93;;;;;;;;;;5156499;27;20480;-69
2021/04/16 07:25:15;;;;;;;3.95;3.38;;;;;;;;;;5151596;27;20031;-69
2021/04/16 07:27:45;;;;;;;4.95;4.28;;;;;;;;;;5137565;27;20037;-69
2021/04/16 07:30:29;;;;;;;5.70;4.30;;;;;;;;;;5156189;27;20014;-70
2021/04/16 07:32:55;;;;;;;4.95;4.55;;;;;;;;;;5156299;27;20027;-70
2021/04/16 07:35:22;;;;;;;6.13;4.18;;;;;;;;;;5155875;27;20021;-69
2021/04/16 07:37:58;;;;;;;4.07;3.67;;;;;;;;;;5156012;27;20156;-69
2021/04/16 07:40:26;;;;;;;3.95;3.60;;;;;;;;;;5137680;27;20042;-61
2021/04/16 07:42:51;;;;;;;4.65;4.18;;;;;;;;;;5125816;27;20019;-69
2021/04/16 07:45:26;;;;;;;4.60;4.15;;;;;;;;;;5155795;27;20033;-61
2021/04/16 07:47:53;;;;;;;4.35;3.95;;;;;;;;;;5137166;27;20110;-61
2021/04/16 07:50:32;;;;;;;5.35;4.85;;;;;;;;;;5137413;27;20018;-61
2021/04/16 07:52:58;;;;;;;4.72;4.32;;;;;;;;;;5156005;27;20033;-61
2021/04/16 07:55:27;;;;;;;5.82;3.90;;;;;;;;;;5156225;27;20365;-61
2021/04/16 07:57:53;;;;;;;5.88;5.13;;;;;;;;;;5137430;27;20137;-61
2021/04/16 08:00:31;;;;;;;5.28;4.78;;;;;;;;;;5155020;27;20490;-61
2021/04/16 08:03:09;;;;;;;4.93;4.43;;;;;;;;;;5136532;27;20029;-61
2021/04/16 08:05:43;;;;;;;5.50;4.75;;;;;;;;;;5136317;27;20449;-61
2021/04/16 08:08:17;;;;;;;4.75;4.32;;;;;;;;;;5155998;27;20037;-62
2021/04/16 08:10:44;;;;;;;5.60;3.92;;;;;;;;;;5155937;27;20019;-61
2021/04/16 08:13:10;;;;;;;4.57;4.18;;;;;;;;;;5155888;27;20442;-61
2021/04/16 08:15:35;;;;;;;4.65;3.97;;;;;;;;;;5137261;27;20027;-62
2021/04/16 08:18:13;;;;;;;4.80;4.40;;;;;;;;;;5155600;27;20023;-62
2021/04/16 08:21:02;;;;;;;4.50;3.53;;;;;;;;;;5155758;27;20142;-62
2021/04/16 08:23:32;;;;;;;5.60;4.53;;;;;;;;;;5124035;27;20053;-62
2021/04/16 08:25:59;;;;;;;5.50;4.97;;;;;;;;;;5120040;27;20105;-61
2021/04/16 08:28:52;;;;;;;6.68;5.18;;;;;;;;;;5155813;27;20117;-62
2021/04/16 08:31:22;;;;;;;5.63;4.95;;;;;;;;;;5130620;27;20042;-62
2021/04/16 08:33:53;;;;;;;5.55;4.55;;;;;;;;;;5134717;27;20043;-61
2021/04/16 08:36:31;;;;;;;4.80;4.30;;;;;;;;;;5134654;27;20439;-61
2021/04/16 08:38:57;;;;;;;5.85;5.25;;;;;;;;;;5099379;27;20029;-62
2021/04/16 08:41:22;;;;;;;6.05;4.47;;;;;;;;;;5116181;27;20094;-61
2021/04/16 08:43:52;;;;;;;5.45;4.78;;;;;;;;;;5146296;27;20026;-62
2021/04/16 08:46:43;;;;;;;4.47;4.07;;;;;;;;;;5154960;27;20011;-61
2021/04/16 08:49:17;;;;;;;4.05;3.72;;;;;;;;;;5150703;27;20038;-69
2021/04/16 08:52:06;;;;;;;4.93;4.45;;;;;;;;;;5154674;27;20058;-69
2021/04/16 08:54:33;;;;;;;4.22;3.50;;;;;;;;;;5143196;27;20394;-69
2021/04/16 08:57:09;;;;;;;5.53;4.55;;;;;;;;;;5154929;27;20027;-69
2021/04/16 08:59:36;;;;;;;4.85;4.28;;;;;;;;;;5154110;27;20122;-69
2021/04/16 09:02:19;;;;;;;4.72;4.15;;;;;;;;;;5154631;27;20041;-69
2021/04/16 09:04:55;;;;;;;4.88;4.05;;;;;;;;;;5154685;27;20019;-69
2021/04/16 09:07:31;;;;;;;4.90;4.50;;;;;;;;;;5154505;27;20477;-69
2021/04/16 09:09:58;;;;;;;4.22;3.85;;;;;;;;;;5154632;27;20030;-69
2021/04/16 09:12:38;;;;;;;5.30;4.80;;;;;;;;;;5135996;27;20022;-69
2021/04/16 09:15:24;;;;;;;5.60;5.05;;;;;;;;;;5154534;27;20479;-69
2021/04/16 09:17:50;;;;;;;5.07;4.05;;;;;;;;;;5158726;27;20026;-69
2021/04/16 09:20:15;;;;;;;5.95;5.28;;;;;;;;;;5158710;27;20019;-69
2021/04/16 09:22:42;;;;;;;7.35;5.50;;;;;;;;;;5140172;27;20037;-69
2021/04/16 09:25:29;;;;;;;5.65;5.10;;;;;;;;;;5139967;27;20089;-69
2021/04/16 09:27:54;;;;;;;5.65;4.75;;;;;;;;;;5158905;27;20031;-69
2021/04/16 09:30:39;;;;;;;6.72;4.78;;;;;;;;;;5159237;27;20079;-69
2021/04/16 09:33:20;;;;;;;6.20;5.03;;;;;;;;;;5159110;27;20023;-69
2021/04/16 09:35:54;;;;;;;5.38;4.75;;;;;;;;;;5159091;27;20469;-69
2021/04/16 09:38:23;;;;;;;4.20;3.80;;;;;;;;;;5140636;27;20042;-66
2021/04/16 09:41:09;;;;;;;5.75;4.43;;;;;;;;;;5140311;27;20079;-68
2021/04/16 09:43:36;;;;;;;5.22;4.28;;;;;;;;;;5126123;27;20061;-67
2021/04/16 09:46:21;;;;;;;4.35;3.95;;;;;;;;;;5158557;27;20030;-62
2021/04/16 09:48:48;;;;;;;4.00;3.50;;;;;;;;;;5158023;27;20030;-63
2021/04/16 09:51:34;;;;;;;7.00;6.28;;;;;;;;;;5158638;27;20022;-61
2021/04/16 09:54:08;;;;;;;5.47;4.88;;;;;;;;;;5158336;27;20362;-62
2021/04/16 09:56:35;;;;;;;7.07;6.05;;;;;;;;;;5158634;27;20018;-62
2021/04/16 09:59:02;;;;;;;8.07;6.30;;;;;;;;;;5158448;27;20022;-63
2021/04/16 10:01:28;;;;;;;6.05;5.38;;;;;;;;;;5158342;27;20036;-62
2021/04/16 10:03:55;;;;;;;5.53;4.95;;;;;;;;;;5158128;27;20026;-62
2021/04/16 10:06:29;;;;;;;6.15;5.57;;;;;;;;;;5158176;27;20427;-62
2021/04/16 10:09:02;;;;;;;7.93;5.60;;;;;;;;;;5158296;27;20023;-62
2021/04/16 10:11:27;;;;;;;6.78;5.53;;;;;;;;;;5158493;27;20030;-62
2021/04/16 10:14:10;;;;;;;8.40;6.65;;;;;;;;;;5158253;27;20018;-62
2021/04/16 10:16:37;;;;;;;2.03;1.85;;;;;;;;;;5158287;27;20035;-62
2021/04/16 10:19:09;;;;;;;6.40;5.78;;;;;;;;;;5157995;27;20022;-62
2021/04/16 10:21:35;;;;;;;4.10;3.63;;;;;;;;;;5139488;27;20062;-62
2021/04/16 12:38:04;;;;;;;3.88;3.58;;;;;;;;;;5110055;28;20096;-63
2021/04/16 12:40:29;;;;;;;5.18;4.60;;;;;;;;;;5112501;28;20025;-63
2021/04/16 12:42:59;;;;;;;6.72;4.60;;;;;;;;;;5111310;28;20101;-63
2021/04/16 12:45:24;;;;;;;4.13;3.78;;;;;;;;;;5113463;28;20019;-63
2021/04/16 12:47:57;;;;;;;4.40;4.00;;;;;;;;;;5111998;28;20027;-63
2021/04/16 12:50:23;;;;;;;4.50;4.10;;;;;;;;;;5112857;28;20020;-63
2021/04/16 12:52:48;;;;;;;4.75;4.35;;;;;;;;;;5112208;28;20102;-62
2021/04/16 12:55:14;;;;;;;5.45;4.47;;;;;;;;;;5113390;28;20130;-62
2021/04/16 12:57:41;;;;;;;5.13;4.47;;;;;;;;;;5113331;28;20467;-62
2021/04/16 13:00:11;;;;;;;5.57;4.88;;;;;;;;;;5128918;27;20035;-63
2021/04/16 13:02:37;;;;;;;5.15;4.63;;;;;;;;;;5154582;27;20026;-62
2021/04/16 13:05:06;;;;;;;6.20;4.65;;;;;;;;;;5154574;27;20014;-62
2021/04/16 13:07:32;;;;;;;4.95;4.43;;;;;;;;;;5154573;27;20023;-62
2021/04/16 13:09:57;;;;;;;4.90;4.40;;;;;;;;;;5154493;27;20018;-62
2021/04/16 13:12:24;;;;;;;3.40;3.10;;;;;;;;;;5154430;27;20362;-62
2021/04/16 13:14:50;;;;;;;3.28;3.08;;;;;;;;;;5154495;27;20029;-62
2021/04/16 13:17:23;;;;;;;3.55;2.85;;;;;;;;;;5154556;27;20050;-62
2021/04/16 13:19:49;;;;;;;5.22;3.70;;;;;;;;;;5154468;27;20031;-62
2021/04/16 13:22:16;;;;;;;6.03;4.63;;;;;;;;;;5135791;27;20091;-62
2021/04/16 13:24:43;;;;;;;6.68;4.65;;;;;;;;;;5154073;27;20423;-63
2021/04/16 13:27:10;;;;;;;6.25;4.68;;;;;;;;;;5154395;27;20015;-62
2021/04/16 13:29:36;;;;;;;7.07;4.75;;;;;;;;;;5135846;27;20027;-62
2021/04/16 13:32:03;;;;;;;6.75;4.50;;;;;;;;;;5154458;27;20019;-62
2021/04/16 13:34:29;;;;;;;9.15;4.78;;;;;;;;;;5154321;27;20027;-62
2021/04/16 13:36:56;;;;;;;4.75;4.13;;;;;;;;;;5154234;27;20011;-62
2021/04/16 13:39:22;;;;;;;6.07;3.92;;;;;;;;;;5154224;27;20018;-62
2021/04/16 13:41:47;;;;;;;6.93;4.50;;;;;;;;;;5154169;27;20481;-62
2021/04/16 13:44:13;;;;;;;5.30;4.20;;;;;;;;;;5154176;27;20051;-62
2021/04/16 13:46:39;;;;;;;6.72;4.78;;;;;;;;;;5154108;27;20529;-62
2021/04/16 13:49:07;;;;;;;6.30;4.90;;;;;;;;;;5154117;27;20023;-63
2021/04/16 13:51:34;;;;;;;7.45;5.38;;;;;;;;;;5154133;27;20018;-62
2021/04/16 13:54:00;;;;;;;6.65;4.90;;;;;;;;;;5154141;27;20021;-63
2021/04/16 13:56:25;;;;;;;5.75;4.38;;;;;;;;;;5154056;27;20011;-63
2021/04/16 13:58:52;;;;;;;6.20;5.00;;;;;;;;;;5154041;27;20034;-63
2021/04/16 14:01:17;;;;;;;6.00;4.57;;;;;;;;;;5135299;27;20111;-63
2021/04/16 14:03:45;;;;;;;4.15;3.70;;;;;;;;;;5157719;27;20040;-63
2021/04/16 14:06:16;;;;;;;5.65;4.32;;;;;;;;;;5158026;27;20025;-63
2021/04/16 14:08:49;;;;;;;7.18;5.40;;;;;;;;;;5158449;27;20052;-63
2021/04/16 14:11:15;;;;;;;6.70;5.20;;;;;;;;;;5139398;27;20026;-63
2021/04/16 14:13:41;;;;;;;7.10;4.15;;;;;;;;;;5138915;27;20018;-63
2021/04/16 14:16:08;;;;;;;6.80;5.28;;;;;;;;;;5149971;27;20532;-68
2021/04/16 14:18:36;;;;;;;4.78;3.05;;;;;;;;;;5156480;27;20023;-68
2021/04/16 14:21:10;;;;;;;4.75;3.95;;;;;;;;;;5137466;27;20038;-68
2021/04/16 14:23:37;;;;;;;5.25;3.97;;;;;;;;;;5153373;27;20103;-68
2021/04/16 14:26:03;;;;;;;6.57;4.43;;;;;;;;;;5152436;27;20473;-68
2021/04/16 14:28:29;;;;;;;5.55;4.20;;;;;;;;;;5152579;27;20080;-68
2021/04/16 14:30:55;;;;;;;5.45;3.90;;;;;;;;;;5152567;27;20019;-68
2021/04/16 14:33:23;;;;;;;3.92;3.63;;;;;;;;;;5152492;27;20027;-68
2021/04/16 14:35:49;;;;;;;5.60;4.20;;;;;;;;;;5152466;27;20404;-68
2021/04/16 14:38:14;;;;;;;4.53;4.13;;;;;;;;;;5152858;27;20035;-65
2021/04/16 14:40:40;;;;;;;4.10;3.70;;;;;;;;;;5152443;27;20031;-65
2021/04/16 14:43:06;;;;;;;5.72;4.78;;;;;;;;;;5152736;27;20033;-65
2021/04/16 14:45:33;;;;;;;4.45;4.05;;;;;;;;;;5152364;27;20030;-65
2021/04/16 14:48:02;;;;;;;6.93;5.45;;;;;;;;;;5152478;27;20026;-65
2021/04/16 14:50:28;;;;;;;5.45;4.63;;;;;;;;;;5152774;27;20011;-64
2021/04/16 14:52:55;;;;;;;6.80;5.57;;;;;;;;;;5152567;27;20030;-65
2021/04/16 14:55:25;;;;;;;7.55;5.43;;;;;;;;;;5152421;27;20422;-64
2021/04/16 14:57:51;;;;;;;7.88;5.53;;;;;;;;;;5152397;27;20091;-64
2021/04/16 15:00:19;;;;;;;7.03;5.22;;;;;;;;;;5152127;27;20046;-64
2021/04/16 15:02:44;;;;;;;6.88;5.22;;;;;;;;;;5152132;27;20035;-64
2021/04/16 15:05:10;;;;;;;6.00;4.60;;;;;;;;;;5150408;27;20492;-64
2021/04/16 15:07:47;;;;;;;3.88;3.47;;;;;;;;;;5151251;27;20059;-64
2021/04/16 15:10:33;;;;;;;5.65;4.28;;;;;;;;;;5151553;27;20050;-64
2021/04/16 15:12:59;;;;;;;5.03;4.47;;;;;;;;;;5132043;27;20038;-64
2021/04/16 15:15:31;;;;;;;5.28;4.40;;;;;;;;;;5150597;27;20382;-64
2021/04/16 15:17:57;;;;;;;4.18;3.75;;;;;;;;;;5151421;27;20054;-63
2021/04/16 15:20:25;;;;;;;6.55;4.88;;;;;;;;;;5151952;27;20064;-64
2021/04/16 15:22:51;;;;;;;5.55;4.40;;;;;;;;;;5151598;27;20034;-64
2021/04/16 15:25:17;;;;;;;7.90;5.05;;;;;;;;;;5151460;27;20027;-64
2021/04/16 15:27:51;;;;;;;5.40;4.68;;;;;;;;;;5132891;27;20079;-64
2021/04/16 15:30:29;;;;;;;6.00;4.82;;;;;;;;;;5151600;27;20054;-64
2021/04/16 15:32:56;;;;;;;5.15;4.50;;;;;;;;;;5151552;27;20069;-63
2021/04/16 15:47:07;;;;;;;7.43;5.68;;;;;;;;;;5151431;27;20084;-63
2021/04/16 15:49:23;;;;;;;10.90;6.25;;;;;;;;;;5146146;27;20042;-63
2021/04/16 15:51:49;;;;;;;6.75;5.55;;;;;;;;;;5151206;27;20767;-63
2021/04/16 15:54:14;;;;;;;6.50;5.05;;;;;;;;;;5151188;27;20082;-63
2021/04/16 15:56:41;;;;;;;6.47;5.22;;;;;;;;;;5150882;27;20014;-63
2021/04/16 15:59:15;;;;;;;4.68;4.15;;;;;;;;;;5151200;27;20030;-63
2021/04/16 16:01:41;;;;;;;5.70;4.75;;;;;;;;;;5129004;27;20039;-63
2021/04/16 16:04:08;;;;;;;7.18;5.65;;;;;;;;;;5130262;27;20035;-63
2021/04/16 16:06:34;;;;;;;8.95;6.57;;;;;;;;;;5132003;27;20031;-63
2021/04/16 16:09:00;;;;;;;6.70;5.47;;;;;;;;;;5131217;27;20030;-62
2021/04/16 16:11:34;;;;;;;8.38;6.28;;;;;;;;;;5131794;27;20027;-62
2021/04/16 16:14:00;;;;;;;6.63;5.25;;;;;;;;;;5131852;27;20066;-62
2021/04/16 16:16:25;;;;;;;8.80;6.63;;;;;;;;;;5132332;27;20023;-62
2021/04/16 16:18:52;;;;;;;7.78;5.43;;;;;;;;;;5113836;27;20034;-62
2021/04/16 16:21:18;;;;;;;8.93;5.38;;;;;;;;;;5132274;27;20406;-62
2021/04/16 16:23:46;;;;;;;7.63;5.72;;;;;;;;;;5130032;27;20035;-62
2021/04/16 16:26:31;;;;;;;6.40;5.25;;;;;;;;;;5130873;27;20030;-62
2021/04/16 16:29:00;;;;;;;7.88;6.25;;;;;;;;;;5131728;27;20123;-63
2021/04/16 16:31:26;;;;;;;10.63;7.65;;;;;;;;;;5127184;27;20488;-64
2021/04/16 16:33:51;;;;;;;10.93;7.53;;;;;;;;;;5111654;27;20019;-63
2021/04/16 16:36:17;;;;;;;9.57;6.60;;;;;;;;;;5110603;28;20015;-63
2021/04/16 16:38:43;;;;;;;7.40;5.25;;;;;;;;;;5111749;28;20118;-62
2021/04/16 16:41:10;;;;;;;9.57;6.72;;;;;;;;;;5111073;28;20031;-63
2021/04/16 16:43:40;;;;;;;9.80;6.90;;;;;;;;;;5112246;28;20360;-63
2021/04/16 16:46:05;;;;;;;6.93;5.43;;;;;;;;;;5112014;28;20032;-63
2021/04/16 16:48:32;;;;;;;9.45;7.07;;;;;;;;;;5111929;28;20020;-62
2021/04/16 16:50:57;;;;;;;9.05;6.00;;;;;;;;;;5107699;28;20039;-63
2021/04/16 16:53:23;;;;;;;7.30;6.00;;;;;;;;;;5108782;28;20023;-63
2021/04/16 16:55:50;;;;;;;7.82;6.28;;;;;;;;;;5110579;27;20529;-63
2021/04/16 16:58:17;;;;;;;11.38;6.55;;;;;;;;;;5111653;28;20043;-63
2021/04/16 17:00:49;;;;;;;7.57;5.97;;;;;;;;;;5133708;27;20077;-64
2021/04/16 17:03:15;;;;;;;8.32;6.15;;;;;;;;;;5134283;27;20774;-63
2021/04/16 17:05:40;;;;;;;7.68;5.85;;;;;;;;;;5152776;27;20022;-64
2021/04/16 17:08:06;;;;;;;5.95;5.35;;;;;;;;;;5134249;27;20402;-63
2021/04/16 17:10:32;;;;;;;6.55;4.78;;;;;;;;;;5152731;27;20098;-63
2021/04/16 17:12:57;;;;;;;5.60;4.40;;;;;;;;;;5153011;27;20023;-63
2021/04/16 17:15:29;;;;;;;4.50;4.10;;;;;;;;;;5152514;27;20011;-64